createdAt,value
2022-11-18T00:04:39.680Z,100.00
2022-11-18T00:09:43.595Z,100.00
2022-11-18T00:14:47.367Z,100.00
2022-11-18T00:19:49.924Z,100.00
2022-11-18T00:24:53.952Z,100.00
2022-11-18T00:29:56.528Z,99.90
2022-11-18T00:34:59.106Z,100.00
2022-11-18T00:40:07.536Z,100.00
2022-11-18T00:45:10.889Z,100.00
2022-11-18T00:50:13.968Z,100.00
2022-11-18T00:55:19.044Z,99.80
2022-11-18T01:00:21.777Z,99.53
2022-11-18T01:05:24.377Z,99.59
2022-11-18T01:10:28.382Z,100.00
2022-11-18T01:15:31.042Z,100.00
2022-11-18T01:20:34.005Z,100.00
2022-11-18T01:25:39.820Z,100.00
2022-11-18T01:30:45.652Z,100.00
2022-11-18T01:35:48.231Z,100.00
2022-11-18T01:40:54.815Z,100.00
2022-11-18T01:45:57.566Z,100.00
2022-11-18T01:51:05.049Z,100.00
2022-11-18T01:56:13.615Z,99.03
2022-11-18T02:01:16.530Z,100.00
2022-11-18T02:06:19.825Z,100.00
2022-11-18T02:11:41.116Z,100.00
2022-11-18T02:16:57.079Z,100.00
2022-11-18T02:22:12.414Z,100.00
2022-11-18T02:27:52.579Z,100.00
2022-11-18T02:33:02.187Z,100.00
2022-11-18T02:38:11.156Z,100.00
2022-11-18T02:43:19.505Z,100.00
2022-11-18T02:48:27.059Z,100.00
2022-11-18T02:53:32.697Z,100.00
2022-11-18T02:58:35.340Z,100.00
2022-11-18T03:03:39.362Z,100.00
2022-11-18T03:08:49.352Z,100.00
2022-11-18T03:14:08.066Z,100.00
2022-11-18T03:19:21.774Z,100.00
2022-11-18T03:24:32.584Z,100.00
2022-11-18T03:29:39.180Z,100.00
2022-11-18T03:34:47.358Z,100.00
2022-11-18T03:39:56.788Z,100.00
2022-11-18T03:45:04.593Z,100.00
2022-11-18T03:50:17.373Z,100.00
2022-11-18T03:55:24.307Z,100.00
2022-11-18T04:00:31.010Z,100.00
2022-11-18T04:05:40.590Z,100.00
2022-11-18T04:10:52.923Z,100.00
2022-11-18T04:15:56.472Z,100.00
2022-11-18T04:21:00.387Z,100.00
2022-11-18T04:26:02.992Z,100.00
2022-11-18T04:31:05.833Z,100.00
2022-11-18T04:36:10.565Z,100.00
2022-11-18T04:41:13.150Z,100.00
2022-11-18T04:46:15.742Z,100.00
2022-11-18T04:51:19.719Z,100.00
2022-11-18T04:56:22.296Z,100.00
2022-11-18T05:01:24.990Z,100.00
2022-11-18T05:06:29.076Z,100.00
2022-11-18T05:11:49.337Z,100.00
2022-11-18T05:16:51.867Z,100.00
2022-11-18T05:21:56.049Z,100.00
2022-11-18T05:26:58.600Z,100.00
2022-11-18T05:32:01.327Z,100.00
2022-11-18T05:37:05.341Z,100.00
2022-11-18T05:42:25.449Z,100.00
2022-11-18T05:47:28.193Z,100.00
2022-11-18T05:52:32.122Z,100.00
2022-11-18T05:57:35.224Z,100.00
2022-11-18T06:02:38.699Z,100.00
2022-11-18T06:07:45.235Z,100.00
2022-11-18T06:12:52.507Z,100.00
2022-11-18T06:17:58.908Z,100.00
2022-11-18T06:23:02.859Z,100.00
2022-11-18T06:28:05.875Z,100.00
2022-11-18T06:33:08.783Z,100.00
2022-11-18T06:38:12.724Z,100.00
2022-11-18T06:43:32.924Z,100.00
2022-11-18T06:48:35.539Z,100.00
2022-11-18T06:53:39.540Z,100.00
2022-11-18T06:58:42.257Z,100.00
2022-11-18T07:03:46.393Z,100.00
2022-11-18T07:08:51.581Z,100.00
2022-11-18T07:13:54.654Z,100.00
2022-11-18T07:18:57.632Z,100.00
2022-11-18T07:24:01.566Z,100.00
2022-11-18T07:29:04.661Z,100.00
2022-11-18T07:34:07.887Z,100.00
2022-11-18T07:39:11.960Z,100.00
2022-11-18T07:44:14.672Z,100.00
2022-11-18T07:49:17.524Z,100.00
2022-11-18T07:54:21.588Z,100.00
2022-11-18T07:59:24.307Z,100.00
2022-11-18T08:04:27.039Z,100.00
2022-11-18T08:09:30.922Z,100.00
2022-11-18T08:14:33.497Z,100.00
2022-11-18T08:19:39.154Z,100.00
2022-11-18T08:24:43.085Z,100.00
2022-11-18T08:29:45.832Z,100.00
2022-11-18T08:34:48.582Z,100.00
2022-11-18T08:39:52.492Z,100.00
2022-11-18T08:44:55.851Z,100.00
2022-11-18T08:49:58.479Z,100.00
2022-11-18T08:55:03.162Z,100.00
2022-11-18T09:00:08.221Z,100.00
2022-11-18T09:05:13.058Z,100.00
2022-11-18T09:10:17.735Z,100.00
2022-11-18T09:15:20.832Z,100.00
2022-11-18T09:20:24.169Z,100.00
2022-11-18T09:25:28.156Z,100.00
2022-11-18T09:30:31.334Z,100.00
2022-11-18T09:35:34.381Z,100.00
2022-11-18T09:40:47.727Z,100.00
2022-11-18T09:45:57.618Z,100.00
2022-11-18T09:51:01.203Z,100.00
2022-11-18T09:56:05.897Z,100.00
2022-11-18T10:01:14.106Z,100.00
2022-11-18T10:06:23.904Z,100.00
2022-11-18T10:11:40.273Z,100.00
2022-11-18T10:16:57.741Z,100.00
2022-11-18T10:22:24.654Z,100.00
2022-11-18T10:27:38.644Z,100.00
2022-11-18T10:32:54.875Z,100.00
2022-11-18T10:38:10.197Z,100.00
2022-11-18T10:43:38.040Z,100.00
2022-11-18T10:48:40.582Z,100.00
2022-11-18T10:53:43.730Z,100.00
2022-11-18T10:58:50.868Z,100.00
2022-11-18T11:04:02.147Z,100.00
2022-11-18T11:09:08.777Z,100.00
2022-11-18T11:14:32.953Z,100.00
2022-11-18T11:19:42.142Z,100.00
2022-11-18T11:24:45.600Z,100.00
2022-11-18T11:30:14.245Z,100.00
2022-11-18T11:35:23.510Z,100.00
2022-11-18T11:40:34.809Z,100.00
2022-11-18T11:45:47.951Z,100.00
2022-11-18T11:51:04.046Z,100.00
2022-11-18T11:56:21.163Z,100.00
2022-11-18T12:01:35.458Z,100.00
2022-11-18T12:06:38.244Z,100.00
2022-11-18T12:11:50.670Z,100.00
2022-11-18T12:17:02.994Z,100.00
2022-11-18T12:22:06.415Z,100.00
2022-11-18T12:27:35.606Z,100.00
2022-11-18T12:32:42.983Z,100.00
2022-11-18T12:38:00.755Z,100.00
2022-11-18T12:43:21.724Z,100.00
2022-11-18T12:48:41.159Z,100.00
2022-11-18T12:53:45.996Z,100.00
2022-11-18T12:58:50.058Z,100.00
2022-11-18T13:04:06.263Z,100.00
2022-11-18T13:09:17.936Z,100.00
2022-11-18T13:14:48.213Z,100.00
2022-11-18T13:19:58.944Z,100.00
2022-11-18T13:25:01.534Z,100.00
2022-11-18T13:30:11.048Z,100.00
2022-11-18T13:35:18.728Z,100.00
2022-11-18T13:40:24.869Z,100.00
2022-11-18T13:45:29.382Z,100.00
2022-11-18T13:50:34.429Z,100.00
2022-11-18T13:55:41.046Z,100.00
2022-11-18T14:00:43.815Z,100.00
2022-11-18T14:05:54.064Z,100.00
2022-11-18T14:10:57.542Z,100.00
2022-11-18T14:16:02.533Z,100.00
2022-11-18T14:21:06.868Z,100.00
2022-11-18T14:26:10.069Z,100.00
2022-11-18T14:31:24.898Z,100.00
2022-11-18T14:36:32.032Z,100.00
2022-11-18T14:41:50.685Z,100.00
2022-11-18T14:47:12.063Z,100.00
2022-11-18T14:52:17.033Z,100.00
2022-11-18T14:57:19.677Z,100.00
2022-11-18T15:02:22.315Z,100.00
2022-11-18T15:07:26.266Z,100.00
2022-11-18T15:12:28.892Z,100.00
2022-11-18T15:17:31.458Z,100.00
2022-11-18T15:22:35.609Z,100.00
2022-11-18T15:27:39.068Z,100.00
2022-11-18T15:32:41.689Z,100.00
2022-11-18T15:37:45.575Z,100.00
2022-11-18T15:42:52.013Z,100.00
2022-11-18T15:47:55.532Z,100.00
2022-11-18T15:53:02.122Z,100.00
2022-11-18T15:58:07.115Z,100.00
2022-11-18T16:03:10.180Z,100.00
2022-11-18T16:08:14.187Z,100.00
2022-11-18T16:13:22.243Z,100.00
2022-11-18T16:18:25.267Z,100.00
2022-11-18T16:23:29.953Z,100.00
2022-11-18T16:28:35.287Z,100.00
2022-11-18T16:33:38.583Z,100.00
2022-11-18T16:38:43.390Z,100.00
2022-11-18T16:43:45.994Z,100.00
2022-11-18T16:48:48.879Z,100.00
2022-11-18T16:53:55.663Z,100.00
2022-11-18T16:59:00.469Z,100.00
2022-11-18T17:04:03.956Z,100.00
2022-11-18T17:09:09.192Z,100.00
2022-11-18T17:14:13.291Z,100.00
2022-11-18T17:19:18.036Z,100.00
2022-11-18T17:24:24.042Z,100.00
2022-11-18T17:29:26.602Z,100.00
2022-11-18T17:34:29.237Z,100.00
2022-11-18T17:39:33.293Z,100.00
2022-11-18T17:44:35.838Z,100.00
2022-11-18T17:49:38.396Z,100.00
2022-11-18T17:54:42.339Z,100.00
2022-11-18T17:59:44.918Z,99.22
2022-11-18T18:04:49.930Z,99.27
2022-11-18T18:09:54.240Z,100.00
2022-11-18T18:14:56.780Z,100.00
2022-11-18T18:19:59.334Z,100.00
2022-11-18T18:25:03.695Z,99.59
2022-11-18T18:30:16.329Z,98.06
2022-11-18T18:35:19.768Z,95.37
2022-11-18T18:40:26.349Z,95.58
2022-11-18T18:45:46.629Z,96.65
2022-11-18T18:50:49.752Z,96.20
2022-11-18T18:55:58.217Z,96.04
2022-11-18T19:01:07.573Z,98.65
2022-11-18T19:12:02.057Z,98.69
2022-11-18T19:22:33.536Z,98.40
2022-11-18T19:27:40.440Z,97.02
2022-11-18T19:32:44.135Z,98.01
2022-11-18T19:37:47.588Z,97.61
2022-11-18T19:42:52.474Z,97.24
2022-11-18T19:47:55.818Z,98.17
2022-11-18T19:52:58.427Z,97.53
2022-11-18T19:58:03.153Z,95.35
2022-11-18T20:03:06.448Z,95.07
2022-11-18T20:08:10.354Z,95.97
2022-11-18T20:13:15.901Z,93.97
2022-11-18T20:18:22.442Z,96.61
2022-11-18T20:23:25.770Z,94.15
2022-11-18T20:28:30.239Z,93.62
2022-11-18T20:33:34.818Z,93.29
2022-11-18T20:38:37.777Z,93.40
2022-11-18T20:43:44.283Z,92.70
2022-11-18T20:48:49.411Z,90.83
2022-11-18T20:53:56.256Z,90.90
2022-11-18T20:59:03.579Z,89.74
2022-11-18T21:04:07.016Z,90.52
2022-11-18T21:09:10.316Z,89.83
2022-11-18T21:14:25.371Z,90.37
2022-11-18T21:19:29.594Z,89.53
2022-11-18T21:24:36.051Z,89.02
2022-11-18T21:29:46.619Z,88.34
2022-11-18T21:34:49.799Z,88.45
2022-11-18T21:39:53.930Z,89.85
2022-11-18T21:44:59.552Z,89.15
2022-11-18T21:50:02.906Z,88.78
2022-11-18T21:55:07.873Z,90.33
2022-11-18T22:00:17.438Z,88.61
2022-11-18T22:05:20.685Z,88.75
2022-11-18T22:10:24.126Z,90.03
2022-11-18T22:15:28.885Z,88.52
2022-11-18T22:20:32.171Z,88.46
2022-11-18T22:25:35.494Z,88.95
2022-11-18T22:30:41.656Z,88.90
2022-11-18T22:35:45.073Z,89.35
2022-11-18T22:40:48.396Z,90.74
2022-11-18T22:45:59.699Z,87.59
2022-11-18T22:51:04.453Z,87.46
2022-11-18T22:56:10.774Z,86.57
2022-11-18T23:01:17.474Z,87.36
2022-11-18T23:06:21.294Z,86.29
2022-11-18T23:11:38.384Z,89.00
2022-11-18T23:16:43.575Z,88.06
2022-11-18T23:21:46.619Z,87.30
2022-11-18T23:26:49.432Z,87.93
2022-11-18T23:31:53.833Z,85.75
2022-11-18T23:36:56.299Z,87.02
2022-11-18T23:41:58.994Z,91.16
2022-11-18T23:47:02.867Z,88.64
2022-11-18T23:52:06.130Z,87.62
2022-11-18T23:57:09.267Z,89.46
